Time;durP1;ratioP1;P1;durP2;ratioP2;P2;SDS_P1;SDS_P2;PMS_P1;PMS_P2;Temp;Humidity;BMP_temperature;BMP_pressure;BME280_temperature;BME280_humidity;BME280_pressure;Samples;Min_cycle;Max_cycle;Signal;HPM_P1;HPM_P2
2023/01/10 00:02:07;;;;;;;;;;;;;;;;;;5094573;28;19911;-76
2023/01/10 00:04:33;;;;;;;;;;;;;;;;;;5094378;28;19919;-76
2023/01/10 00:06:59;;;;;;;;;;;;;;;;;;5094762;28;19908;-77
2023/01/10 00:09:25;;;;;;;;;;;;;;;;;;5094293;28;19909;-76
2023/01/10 00:14:36;;;;;;;;;;;;;;;;;;5093928;28;20000;-76
2023/01/10 00:17:02;;;;;;;;;;;;;;;;;;5092815;28;20002;-77
2023/01/10 00:22:12;;;;;;;;;;;;;;;;;;5093849;28;19915;-76
2023/01/10 00:24:38;;;;;;;;;;;;;;;;;;5094018;28;19908;-76
2023/01/10 00:27:04;;;;;;;;;;;;;;;;;;5092759;28;19908;-76
2023/01/10 00:29:30;;;;;;;;;;;;;;;;;;5094020;28;19934;-76
2023/01/10 00:31:56;;;;;;;;;;;;;;;;;;5094030;28;19915;-76
2023/01/10 00:34:22;;;;;;;;;;;;;;;;;;5093717;28;19999;-76
2023/01/10 00:36:48;;;;;;;;;;;;;;;;;;5094136;28;19960;-76
2023/01/10 00:39:14;;;;;;;;;;;;;;;;;;5094281;28;20296;-76
2023/01/10 00:44:24;;;;;;;;;;;;;;;;;;5093526;28;19961;-76
2023/01/10 00:46:50;;;;;;;;;;;;;;;;;;5093764;28;20287;-76
2023/01/10 00:49:16;;;;;;;;;;;;;;;;;;5093850;28;19915;-77
2023/01/10 00:51:42;;;;;;;;;;;;;;;;;;5093791;28;19910;-76
2023/01/10 00:54:08;;;;;;;;;;;;;;;;;;5093838;28;20332;-76
2023/01/10 00:56:34;;;;;;;;;;;;;;;;;;5093603;28;19961;-75
2023/01/10 00:59:00;;;;;;;;;;;;;;;;;;5094107;28;19909;-76
2023/01/10 01:01:26;;;;;;;;;;;;;;;;;;5093732;28;19915;-76
2023/01/10 01:03:52;;;;;;;;;;;;;;;;;;5093840;28;20326;-76
2023/01/10 01:06:18;;;;;;;;;;;;;;;;;;5093619;28;20392;-76
2023/01/10 01:08:44;;;;;;;;;;;;;;;;;;5093806;28;19915;-77
2023/01/10 01:11:10;;;;;;;;;;;;;;;;;;5093735;28;19931;-77
2023/01/10 01:13:36;;;;;;;;;;;;;;;;;;5092298;28;19908;-76
2023/01/10 01:16:02;;;;;;;;;;;;;;;;;;5093585;28;20333;-77
2023/01/10 01:18:28;;;;;;;;;;;;;;;;;;5093527;28;20335;-76
2023/01/10 01:20:55;;;;;;;;;;;;;;;;;;5093842;28;19908;-75
2023/01/10 01:23:20;;;;;;;;;;;;;;;;;;5093699;28;19908;-77
2023/01/10 01:25:46;;;;;;;;;;;;;;;;;;5093514;28;19923;-75
2023/01/10 01:28:12;;;;;;;;;;;;;;;;;;5093410;28;20072;-76
2023/01/10 01:30:38;;;;;;;;;;;;;;;;;;5093446;28;20279;-76
2023/01/10 01:33:04;;;;;;;;;;;;;;;;;;5093580;28;19908;-77
2023/01/10 01:35:32;;;;;;;;;;;;;;;;;;5093357;28;20015;-76
2023/01/10 01:37:58;;;;;;;;;;;;;;;;;;5093404;28;19908;-77
2023/01/10 01:40:24;;;;;;;;;;;;;;;;;;5093350;28;19931;-76
2023/01/10 01:42:54;;;;;;;;;;;;;;;;;;5093344;28;20333;-76
2023/01/10 01:45:20;;;;;;;;;;;;;;;;;;5092025;28;19908;-76
2023/01/10 01:47:46;;;;;;;;;;;;;;;;;;5093250;28;19993;-76
2023/01/10 01:50:12;;;;;;;;;;;;;;;;;;5093343;28;20292;-76
2023/01/10 01:52:38;;;;;;;;;;;;;;;;;;5091793;28;20368;-76
2023/01/10 01:55:04;;;;;;;;;;;;;;;;;;5093590;28;19915;-77
2023/01/10 01:57:29;;;;;;;;;;;;;;;;;;5093393;28;20010;-76
2023/01/10 01:59:55;;;;;;;;;;;;;;;;;;5094426;28;19958;-76
2023/01/10 02:02:21;;;;;;;;;;;;;;;;;;5096181;28;19954;-76
2023/01/10 02:04:47;;;;;;;;;;;;;;;;;;5096895;28;19908;-76
2023/01/10 02:07:13;;;;;;;;;;;;;;;;;;5096636;28;20007;-77
2023/01/10 02:09:39;;;;;;;;;;;;;;;;;;5096781;28;19947;-76
2023/01/10 02:12:05;;;;;;;;;;;;;;;;;;5095243;28;19934;-76
2023/01/10 02:14:31;;;;;;;;;;;;;;;;;;5096500;28;19908;-77
2023/01/10 02:16:57;;;;;;;;;;;;;;;;;;5095104;28;19919;-77
2023/01/10 02:19:23;;;;;;;;;;;;;;;;;;5095089;28;19912;-76
2023/01/10 02:21:49;;;;;;;;;;;;;;;;;;5096565;28;19909;-76
2023/01/10 02:24:15;;;;;;;;;;;;;;;;;;5096446;28;19908;-76
2023/01/10 02:26:41;;;;;;;;;;;;;;;;;;5096370;28;19931;-76
2023/01/10 02:29:06;;;;;;;;;;;;;;;;;;5096199;28;20322;-76
2023/01/10 02:31:32;;;;;;;;;;;;;;;;;;5096630;28;20572;-76
2023/01/10 02:33:58;;;;;;;;;;;;;;;;;;5096086;28;19908;-77
2023/01/10 02:36:24;;;;;;;;;;;;;;;;;;5095586;28;19920;-75
2023/01/10 02:38:50;;;;;;;;;;;;;;;;;;5096225;28;20375;-76
2023/01/10 02:41:16;;;;;;;;;;;;;;;;;;5094699;28;19915;-76
2023/01/10 02:43:42;;;;;;;;;;;;;;;;;;5095942;28;19912;-76
2023/01/10 02:46:08;;;;;;;;;;;;;;;;;;5095880;28;19909;-76
2023/01/10 02:48:34;;;;;;;;;;;;;;;;;;5095825;28;19908;-76
2023/01/10 02:51:00;;;;;;;;;;;;;;;;;;5095860;28;20002;-76
2023/01/10 02:53:26;;;;;;;;;;;;;;;;;;5095668;28;19951;-76
2023/01/10 02:55:52;;;;;;;;;;;;;;;;;;5095885;28;19912;-76
2023/01/10 02:58:18;;;;;;;;;;;;;;;;;;5095669;28;19908;-76
2023/01/10 03:00:44;;;;;;;;;;;;;;;;;;5094360;28;20280;-75
2023/01/10 03:03:10;;;;;;;;;;;;;;;;;;5095672;28;19915;-76
2023/01/10 03:05:36;;;;;;;;;;;;;;;;;;5095471;28;19908;-75
2023/01/10 03:08:02;;;;;;;;;;;;;;;;;;5095460;28;19995;-76
2023/01/10 03:10:28;;;;;;;;;;;;;;;;;;5095297;28;19947;-76
2023/01/10 03:12:55;;;;;;;;;;;;;;;;;;5095354;28;19908;-76
2023/01/10 03:15:21;;;;;;;;;;;;;;;;;;5095349;28;20399;-76
2023/01/10 03:17:47;;;;;;;;;;;;;;;;;;5095138;28;19912;-76
2023/01/10 03:20:13;;;;;;;;;;;;;;;;;;5095236;28;20002;-76
2023/01/10 03:22:39;;;;;;;;;;;;;;;;;;5095526;28;19962;-76
2023/01/10 03:25:06;;;;;;;;;;;;;;;;;;5095140;28;19922;-75
2023/01/10 03:27:31;;;;;;;;;;;;;;;;;;5095180;28;19939;-76
2023/01/10 03:29:57;;;;;;;;;;;;;;;;;;5095050;28;19943;-76
2023/01/10 03:32:23;;;;;;;;;;;;;;;;;;5095456;28;19912;-74
2023/01/10 03:34:49;;;;;;;;;;;;;;;;;;5094764;28;19920;-75
2023/01/10 03:37:15;;;;;;;;;;;;;;;;;;5094834;28;19969;-75
2023/01/10 03:39:41;;;;;;;;;;;;;;;;;;5093577;28;19908;-77
2023/01/10 03:42:07;;;;;;;;;;;;;;;;;;5094844;28;19908;-77
2023/01/10 03:44:42;;;;;;;;;;;;;;;;;;5093473;28;19912;-75
2023/01/10 03:47:08;;;;;;;;;;;;;;;;;;5094890;28;19908;-77
2023/01/10 03:49:34;;;;;;;;;;;;;;;;;;5093395;28;19914;-76
2023/01/10 03:52:00;;;;;;;;;;;;;;;;;;5094626;28;19916;-76
2023/01/10 03:54:26;;;;;;;;;;;;;;;;;;5093284;28;20334;-76
2023/01/10 03:56:52;;;;;;;;;;;;;;;;;;5094471;28;20356;-76
2023/01/10 03:59:18;;;;;;;;;;;;;;;;;;5094585;28;19943;-77
2023/01/10 04:01:44;;;;;;;;;;;;;;;;;;5094451;28;19915;-77
2023/01/10 04:04:10;;;;;;;;;;;;;;;;;;5094387;28;20265;-77
2023/01/10 04:06:36;;;;;;;;;;;;;;;;;;5094539;28;19908;-77
2023/01/10 04:09:02;;;;;;;;;;;;;;;;;;5094258;28;19916;-77
2023/01/10 04:11:28;;;;;;;;;;;;;;;;;;5094429;28;19953;-76
2023/01/10 04:13:54;;;;;;;;;;;;;;;;;;5094232;28;19909;-77
2023/01/10 04:16:20;;;;;;;;;;;;;;;;;;5094172;28;19920;-76
2023/01/10 04:18:46;;;;;;;;;;;;;;;;;;5094229;28;20330;-77
2023/01/10 04:21:12;;;;;;;;;;;;;;;;;;5094373;28;19973;-76
2023/01/10 04:23:37;;;;;;;;;;;;;;;;;;5093607;28;19908;-76
2023/01/10 04:26:03;;;;;;;;;;;;;;;;;;5094064;28;19961;-77
2023/01/10 04:28:29;;;;;;;;;;;;;;;;;;5094083;28;19908;-77
2023/01/10 04:30:55;;;;;;;;;;;;;;;;;;5094003;28;19915;-78
2023/01/10 04:33:21;;;;;;;;;;;;;;;;;;5094207;28;19957;-77
2023/01/10 04:35:47;;;;;;;;;;;;;;;;;;5093460;28;19916;-76
2023/01/10 04:38:13;;;;;;;;;;;;;;;;;;5093926;28;20395;-77
2023/01/10 04:40:39;;;;;;;;;;;;;;;;;;5093950;28;19957;-77
2023/01/10 04:43:05;;;;;;;;;;;;;;;;;;5094024;28;19915;-76
2023/01/10 04:45:31;;;;;;;;;;;;;;;;;;5093820;28;19908;-76
2023/01/10 04:47:58;;;;;;;;;;;;;;;;;;5093826;28;20253;-76
2023/01/10 04:50:24;;;;;;;;;;;;;;;;;;5094176;28;19915;-76
2023/01/10 04:52:50;;;;;;;;;;;;;;;;;;5093614;28;20254;-76
2023/01/10 04:55:16;;;;;;;;;;;;;;;;;;5093861;28;20368;-78
2023/01/10 04:57:42;;;;;;;;;;;;;;;;;;5093598;28;19912;-77
2023/01/10 05:00:08;;;;;;;;;;;;;;;;;;5093723;28;20339;-76
2023/01/10 05:02:34;;;;;;;;;;;;;;;;;;5093974;28;20422;-77
2023/01/10 05:05:00;;;;;;;;;;;;;;;;;;5093656;28;19908;-77
2023/01/10 05:07:26;;;;;;;;;;;;;;;;;;5093608;28;19931;-77
2023/01/10 05:09:52;;;;;;;;;;;;;;;;;;5093765;28;19992;-76
2023/01/10 05:12:18;;;;;;;;;;;;;;;;;;5093701;28;19908;-77
2023/01/10 05:14:44;;;;;;;;;;;;;;;;;;5093525;28;19912;-78
2023/01/10 05:17:10;;;;;;;;;;;;;;;;;;5093454;28;19912;-78
2023/01/10 05:19:35;;;;;;;;;;;;;;;;;;5093542;28;19950;-77
2023/01/10 05:22:02;;;;;;;;;;;;;;;;;;5093611;28;19958;-77
2023/01/10 05:24:28;;;;;;;;;;;;;;;;;;5093678;28;20327;-76
2023/01/10 05:26:53;;;;;;;;;;;;;;;;;;5093440;28;19912;-77
2023/01/10 05:29:19;;;;;;;;;;;;;;;;;;5092188;28;19943;-77
2023/01/10 05:31:45;;;;;;;;;;;;;;;;;;5093430;28;19908;-77
2023/01/10 05:34:11;;;;;;;;;;;;;;;;;;5092217;28;19908;-77
2023/01/10 05:36:37;;;;;;;;;;;;;;;;;;5097028;28;19944;-76
2023/01/10 05:39:03;;;;;;;;;;;;;;;;;;5097165;28;20364;-78
2023/01/10 05:41:29;;;;;;;;;;;;;;;;;;5097210;28;19934;-78
2023/01/10 05:43:55;;;;;;;;;;;;;;;;;;5097474;28;19915;-77
2023/01/10 05:46:21;;;;;;;;;;;;;;;;;;5097075;28;19908;-77
2023/01/10 05:48:47;;;;;;;;;;;;;;;;;;5097022;28;19962;-77
2023/01/10 05:51:13;;;;;;;;;;;;;;;;;;5096976;28;20261;-77
2023/01/10 05:53:39;;;;;;;;;;;;;;;;;;5096925;28;20356;-77
2023/01/10 05:56:06;;;;;;;;;;;;;;;;;;5097088;28;19919;-77
2023/01/10 05:58:32;;;;;;;;;;;;;;;;;;5096888;28;20261;-77
2023/01/10 06:00:58;;;;;;;;;;;;;;;;;;5096766;28;19915;-77
2023/01/10 06:03:25;;;;;;;;;;;;;;;;;;5096717;28;20380;-76
2023/01/10 06:05:51;;;;;;;;;;;;;;;;;;5097017;28;19909;-77
2023/01/10 06:08:17;;;;;;;;;;;;;;;;;;5096642;28;19908;-77
2023/01/10 06:10:43;;;;;;;;;;;;;;;;;;5096639;28;19914;-76
2023/01/10 06:13:09;;;;;;;;;;;;;;;;;;5096710;28;20276;-76
2023/01/10 06:15:35;;;;;;;;;;;;;;;;;;5096736;28;20368;-78
2023/01/10 06:18:00;;;;;;;;;;;;;;;;;;5096386;28;19919;-77
2023/01/10 06:20:26;;;;;;;;;;;;;;;;;;5096425;28;19908;-78
2023/01/10 06:22:53;;;;;;;;;;;;;;;;;;5096347;28;19931;-77
2023/01/10 06:25:18;;;;;;;;;;;;;;;;;;5096482;28;19915;-76
2023/01/10 06:27:44;;;;;;;;;;;;;;;;;;5096493;28;19909;-78
2023/01/10 06:30:10;;;;;;;;;;;;;;;;;;5096244;28;19940;-77
2023/01/10 06:32:36;;;;;;;;;;;;;;;;;;5096169;28;19957;-77
2023/01/10 06:35:02;;;;;;;;;;;;;;;;;;5095923;28;19965;-76
2023/01/10 06:37:28;;;;;;;;;;;;;;;;;;5096147;28;19920;-77
2023/01/10 06:39:54;;;;;;;;;;;;;;;;;;5096071;28;20350;-78
2023/01/10 06:42:20;;;;;;;;;;;;;;;;;;5096046;28;19951;-76
2023/01/10 06:44:46;;;;;;;;;;;;;;;;;;5095967;28;20289;-77
2023/01/10 06:47:12;;;;;;;;;;;;;;;;;;5095714;28;19915;-78
2023/01/10 06:49:38;;;;;;;;;;;;;;;;;;5096009;28;19915;-77
2023/01/10 06:52:04;;;;;;;;;;;;;;;;;;5095854;28;19912;-77
2023/01/10 06:54:29;;;;;;;;;;;;;;;;;;5095660;28;19997;-76
2023/01/10 06:56:55;;;;;;;;;;;;;;;;;;5095919;28;19916;-77
2023/01/10 06:59:21;;;;;;;;;;;;;;;;;;5095656;28;19908;-77
2023/01/10 07:01:47;;;;;;;;;;;;;;;;;;5095623;28;19915;-76
2023/01/10 07:04:13;;;;;;;;;;;;;;;;;;5095610;28;19912;-76
2023/01/10 07:06:40;;;;;;;;;;;;;;;;;;5095470;28;20295;-76
2023/01/10 07:09:06;;;;;;;;;;;;;;;;;;5095887;28;19914;-76
2023/01/10 07:11:32;;;;;;;;;;;;;;;;;;5095573;28;19908;-77
2023/01/10 07:13:58;;;;;;;;;;;;;;;;;;5095324;28;19908;-76
2023/01/10 07:16:25;;;;;;;;;;;;;;;;;;5095190;28;19916;-77
2023/01/10 07:18:51;;;;;;;;;;;;;;;;;;5095349;28;19915;-78
2023/01/10 07:21:18;;;;;;;;;;;;;;;;;;5095561;28;19916;-77
2023/01/10 07:23:44;;;;;;;;;;;;;;;;;;5095348;28;19912;-77
2023/01/10 07:26:10;;;;;;;;;;;;;;;;;;5095326;28;20378;-78
2023/01/10 07:28:36;;;;;;;;;;;;;;;;;;5095654;28;19908;-78
2023/01/10 07:31:02;;;;;;;;;;;;;;;;;;5095137;28;19908;-78
2023/01/10 07:33:28;;;;;;;;;;;;;;;;;;5093845;28;20364;-77
2023/01/10 07:35:54;;;;;;;;;;;;;;;;;;5094942;28;19922;-78
2023/01/10 07:38:20;;;;;;;;;;;;;;;;;;5095168;28;19998;-78
2023/01/10 07:40:46;;;;;;;;;;;;;;;;;;5094960;28;19908;-79
2023/01/10 07:43:12;;;;;;;;;;;;;;;;;;5095177;28;19908;-78
2023/01/10 07:45:38;;;;;;;;;;;;;;;;;;5095030;28;19933;-79
2023/01/10 07:48:04;;;;;;;;;;;;;;;;;;5094964;28;19959;-76
2023/01/10 07:50:29;;;;;;;;;;;;;;;;;;5093475;28;19915;-78
2023/01/10 07:52:55;;;;;;;;;;;;;;;;;;5094877;28;19908;-77
2023/01/10 07:55:21;;;;;;;;;;;;;;;;;;5094710;28;19934;-78
2023/01/10 07:57:47;;;;;;;;;;;;;;;;;;5093894;28;19944;-78
2023/01/10 08:00:13;;;;;;;;;;;;;;;;;;5094725;28;19962;-78
2023/01/10 08:02:39;;;;;;;;;;;;;;;;;;5094652;28;19944;-79
2023/01/10 08:05:05;;;;;;;;;;;;;;;;;;5094508;28;19970;-79
2023/01/10 08:07:31;;;;;;;;;;;;;;;;;;5094812;28;20356;-79
2023/01/10 08:09:57;;;;;;;;;;;;;;;;;;5094387;28;19915;-78
2023/01/10 08:12:26;;;;;;;;;;;;;;;;;;5093091;28;19908;-77
2023/01/10 08:14:52;;;;;;;;;;;;;;;;;;5094419;28;19908;-78
2023/01/10 08:17:18;;;;;;;;;;;;;;;;;;5093974;28;19995;-78
2023/01/10 08:19:44;;;;;;;;;;;;;;;;;;5092989;28;19952;-79
2023/01/10 08:22:10;;;;;;;;;;;;;;;;;;5094192;28;19915;-78
2023/01/10 08:24:37;;;;;;;;;;;;;;;;;;5094232;28;19908;-80
2023/01/10 08:27:03;;;;;;;;;;;;;;;;;;5094156;28;20373;-79
2023/01/10 08:29:29;;;;;;;;;;;;;;;;;;5094885;28;19947;-77
2023/01/10 08:31:55;;;;;;;;;;;;;;;;;;5094163;28;19954;-78
2023/01/10 08:34:21;;;;;;;;;;;;;;;;;;5093961;28;19915;-78
2023/01/10 08:36:47;;;;;;;;;;;;;;;;;;5094466;28;19920;-79
2023/01/10 08:39:12;;;;;;;;;;;;;;;;;;5094103;28;20330;-78
2023/01/10 08:41:40;;;;;;;;;;;;;;;;;;5094325;28;19961;-77
2023/01/10 08:44:05;;;;;;;;;;;;;;;;;;5093994;28;20284;-78
2023/01/10 08:46:31;;;;;;;;;;;;;;;;;;5093950;28;19908;-77
2023/01/10 08:48:57;;;;;;;;;;;;;;;;;;5094016;28;19915;-78
2023/01/10 08:51:23;;;;;;;;;;;;;;;;;;5093855;28;19912;-78
2023/01/10 08:53:49;;;;;;;;;;;;;;;;;;5093840;28;19953;-79
2023/01/10 08:56:15;;;;;;;;;;;;;;;;;;5093848;28;19912;-78
2023/01/10 08:58:41;;;;;;;;;;;;;;;;;;5094306;28;19908;-79
2023/01/10 09:01:07;;;;;;;;;;;;;;;;;;5093707;28;19978;-78
2023/01/10 09:03:33;;;;;;;;;;;;;;;;;;5093755;28;20002;-78
2023/01/10 09:05:59;;;;;;;;;;;;;;;;;;5092428;28;19916;-78
2023/01/10 09:08:25;;;;;;;;;;;;;;;;;;5094659;28;19915;-77
2023/01/10 09:10:51;;;;;;;;;;;;;;;;;;5097967;28;19908;-79
2023/01/10 09:13:17;;;;;;;;;;;;;;;;;;5098415;28;20276;-78
2023/01/10 09:15:43;;;;;;;;;;;;;;;;;;5097703;28;19908;-77
2023/01/10 09:18:09;;;;;;;;;;;;;;;;;;5098129;28;19912;-78
2023/01/10 09:20:35;;;;;;;;;;;;;;;;;;5096356;28;19961;-78
2023/01/10 09:23:00;;;;;;;;;;;;;;;;;;5097471;28;19951;-78
2023/01/10 09:25:26;;;;;;;;;;;;;;;;;;5097949;28;19908;-78
2023/01/10 09:27:52;;;;;;;;;;;;;;;;;;5097743;28;19930;-77
2023/01/10 09:30:18;;;;;;;;;;;;;;;;;;5097162;28;19908;-77
2023/01/10 09:32:44;;;;;;;;;;;;;;;;;;5097711;28;19908;-78
2023/01/10 09:35:10;;;;;;;;;;;;;;;;;;5097207;28;20453;-78
2023/01/10 09:37:36;;;;;;;;;;;;;;;;;;5097233;28;19916;-78
2023/01/10 09:40:02;;;;;;;;;;;;;;;;;;5096989;28;19954;-79
2023/01/10 09:42:28;;;;;;;;;;;;;;;;;;5097278;28;19912;-77
2023/01/10 09:44:54;;;;;;;;;;;;;;;;;;5097344;28;19909;-80
2023/01/10 09:47:20;;;;;;;;;;;;;;;;;;5097068;28;19908;-77
2023/01/10 09:49:46;;;;;;;;;;;;;;;;;;5097159;28;20356;-79
2023/01/10 09:52:12;;;;;;;;;;;;;;;;;;5097228;28;20380;-78
2023/01/10 09:54:38;;;;;;;;;;;;;;;;;;5097322;28;19915;-76
2023/01/10 09:57:04;;;;;;;;;;;;;;;;;;5097047;28;19953;-77
2023/01/10 09:59:30;;;;;;;;;;;;;;;;;;5097061;28;19908;-79
2023/01/10 10:01:56;;;;;;;;;;;;;;;;;;5096930;28;19908;-78
2023/01/10 10:04:22;;;;;;;;;;;;;;;;;;5095555;28;19953;-79
2023/01/10 10:06:48;;;;;;;;;;;;;;;;;;5096823;28;19908;-78
2023/01/10 10:09:14;;;;;;;;;;;;;;;;;;5096737;28;19944;-78
2023/01/10 10:11:40;;;;;;;;;;;;;;;;;;5096819;28;19912;-79
2023/01/10 10:14:05;;;;;;;;;;;;;;;;;;5096771;28;19954;-78
2023/01/10 10:16:31;;;;;;;;;;;;;;;;;;5095389;28;20359;-79
2023/01/10 10:18:57;;;;;;;;;;;;;;;;;;5096895;28;19908;-79
2023/01/10 10:21:23;;;;;;;;;;;;;;;;;;5095747;28;19919;-78
2023/01/10 10:23:49;;;;;;;;;;;;;;;;;;5096590;28;19908;-79
2023/01/10 10:26:15;;;;;;;;;;;;;;;;;;5096956;28;20371;-79
2023/01/10 10:28:41;;;;;;;;;;;;;;;;;;5095194;28;20373;-79
2023/01/10 10:31:07;;;;;;;;;;;;;;;;;;5096774;28;19915;-79
2023/01/10 10:33:33;;;;;;;;;;;;;;;;;;5096896;28;19908;-80
2023/01/10 10:35:59;;;;;;;;;;;;;;;;;;5096325;28;19916;-79
2023/01/10 10:38:25;;;;;;;;;;;;;;;;;;5096644;28;19956;-78
2023/01/10 10:40:51;;;;;;;;;;;;;;;;;;5096224;28;20343;-79
2023/01/10 10:43:20;;;;;;;;;;;;;;;;;;5096136;28;20434;-80
2023/01/10 10:45:46;;;;;;;;;;;;;;;;;;5096092;28;20016;-78
2023/01/10 10:48:11;;;;;;;;;;;;;;;;;;5095999;28;19939;-79
2023/01/10 10:50:37;;;;;;;;;;;;;;;;;;5096004;28;19930;-78
2023/01/10 10:53:03;;;;;;;;;;;;;;;;;;5096155;28;20376;-79
2023/01/10 10:55:29;;;;;;;;;;;;;;;;;;5095781;28;19952;-79
2023/01/10 10:57:55;;;;;;;;;;;;;;;;;;5096177;28;19916;-78
2023/01/10 11:00:21;;;;;;;;;;;;;;;;;;5095857;28;19955;-79
2023/01/10 11:02:47;;;;;;;;;;;;;;;;;;5095645;28;19954;-80
2023/01/10 11:05:13;;;;;;;;;;;;;;;;;;5095603;28;19908;-78
2023/01/10 11:07:39;;;;;;;;;;;;;;;;;;5095592;28;20287;-79
2023/01/10 11:12:31;;;;;;;;;;;;;;;;;;5096089;28;19940;-79
2023/01/10 11:14:57;;;;;;;;;;;;;;;;;;5095464;28;19954;-79
2023/01/10 11:17:24;;;;;;;;;;;;;;;;;;5095281;28;19916;-79
2023/01/10 11:19:50;;;;;;;;;;;;;;;;;;5095324;28;20006;-79
2023/01/10 11:22:16;;;;;;;;;;;;;;;;;;5095215;28;19938;-80
2023/01/10 11:24:42;;;;;;;;;;;;;;;;;;5095364;28;19908;-78
2023/01/10 11:27:08;;;;;;;;;;;;;;;;;;5095428;28;20466;-79
2023/01/10 11:29:34;;;;;;;;;;;;;;;;;;5095073;28;19958;-78
2023/01/10 11:32:00;;;;;;;;;;;;;;;;;;5095166;28;19912;-78
2023/01/10 11:34:26;;;;;;;;;;;;;;;;;;5095290;28;20007;-79
2023/01/10 11:36:52;;;;;;;;;;;;;;;;;;5095217;28;19963;-79
2023/01/10 11:39:18;;;;;;;;;;;;;;;;;;5094954;28;19908;-78
2023/01/10 11:41:44;;;;;;;;;;;;;;;;;;5095207;28;20377;-79
2023/01/10 11:44:10;;;;;;;;;;;;;;;;;;5094964;28;20361;-78
2023/01/10 11:46:35;;;;;;;;;;;;;;;;;;5094735;28;19915;-80
2023/01/10 11:49:02;;;;;;;;;;;;;;;;;;5092765;28;19993;-78
2023/01/10 11:51:28;;;;;;;;;;;;;;;;;;5085670;28;20234;-77
2023/01/10 11:53:54;;;;;;;;;;;;;;;;;;5094191;28;19912;-79
2023/01/10 11:56:20;;;;;;;;;;;;;;;;;;5094176;28;20291;-79
2023/01/10 11:58:46;;;;;;;;;;;;;;;;;;5094065;28;19995;-78
2023/01/10 12:01:12;;;;;;;;;;;;;;;;;;5094000;28;19912;-79
2023/01/10 12:03:39;;;;;;;;;;;;;;;;;;5094002;28;19912;-79
2023/01/10 12:06:04;;;;;;;;;;;;;;;;;;5091208;28;19914;-78
2023/01/10 12:08:31;;;;;;;;;;;;;;;;;;5094087;28;19944;-79
2023/01/10 12:10:57;;;;;;;;;;;;;;;;;;5092616;28;19908;-79
2023/01/10 12:13:23;;;;;;;;;;;;;;;;;;5092472;28;19908;-79
2023/01/10 12:15:49;;;;;;;;;;;;;;;;;;5092424;28;19915;-79
2023/01/10 12:18:18;;;;;;;;;;;;;;;;;;5093818;28;19912;-78
2023/01/10 12:20:44;;;;;;;;;;;;;;;;;;5093733;28;20273;-78
2023/01/10 12:23:10;;;;;;;;;;;;;;;;;;5093659;28;20003;-78
2023/01/10 12:25:36;;;;;;;;;;;;;;;;;;5093705;28;19909;-78
2023/01/10 12:28:02;;;;;;;;;;;;;;;;;;5094073;28;19908;-79
2023/01/10 12:30:28;;;;;;;;;;;;;;;;;;5094307;28;19908;-79
2023/01/10 12:32:54;;;;;;;;;;;;;;;;;;5092675;28;19912;-78
2023/01/10 12:35:20;;;;;;;;;;;;;;;;;;5093732;28;19977;-79
2023/01/10 12:37:46;;;;;;;;;;;;;;;;;;5093753;28;19916;-78
2023/01/10 12:40:11;;;;;;;;;;;;;;;;;;5093908;28;19915;-78
2023/01/10 12:45:22;;;;;;;;;;;;;;;;;;5093365;28;20433;-78
2023/01/10 12:47:48;;;;;;;;;;;;;;;;;;5094031;28;19908;-78
2023/01/10 12:50:14;;;;;;;;;;;;;;;;;;5093824;28;20052;-78
2023/01/10 12:52:44;;;;;;;;;;;;;;;;;;5093951;28;19958;-78
2023/01/10 12:55:10;;;;;;;;;;;;;;;;;;5092492;28;20359;-79
2023/01/10 12:57:36;;;;;;;;;;;;;;;;;;5092403;28;19919;-78
2023/01/10 13:00:02;;;;;;;;;;;;;;;;;;5093852;28;19908;-77
2023/01/10 13:02:27;;;;;;;;;;;;;;;;;;5093719;28;19959;-77
2023/01/10 13:04:53;;;;;;;;;;;;;;;;;;5093867;28;19961;-78
2023/01/10 13:07:19;;;;;;;;;;;;;;;;;;5093685;28;19908;-77
2023/01/10 13:09:45;;;;;;;;;;;;;;;;;;5093962;28;19912;-78
2023/01/10 13:12:13;;;;;;;;;;;;;;;;;;5093623;28;19908;-78
2023/01/10 13:14:39;;;;;;;;;;;;;;;;;;5093675;28;19909;-78
2023/01/10 13:17:07;;;;;;;;;;;;;;;;;;5094020;28;19919;-78
2023/01/10 13:19:33;;;;;;;;;;;;;;;;;;5093522;28;19986;-77
2023/01/10 13:21:58;;;;;;;;;;;;;;;;;;5093709;28;19951;-78
2023/01/10 13:24:27;;;;;;;;;;;;;;;;;;5093509;28;19915;-78
2023/01/10 13:26:53;;;;;;;;;;;;;;;;;;5092245;28;19915;-77
2023/01/10 13:29:19;;;;;;;;;;;;;;;;;;5093437;28;19908;-77
2023/01/10 13:31:45;;;;;;;;;;;;;;;;;;5093436;28;19915;-78
2023/01/10 13:34:11;;;;;;;;;;;;;;;;;;5093360;28;19916;-77
2023/01/10 13:36:37;;;;;;;;;;;;;;;;;;5093149;28;19970;-77
2023/01/10 13:39:03;;;;;;;;;;;;;;;;;;5093450;28;19908;-78
2023/01/10 13:44:13;;;;;;;;;;;;;;;;;;5093100;28;19919;-78
2023/01/10 13:46:39;;;;;;;;;;;;;;;;;;5093316;28;19908;-78
2023/01/10 13:49:05;;;;;;;;;;;;;;;;;;5091969;28;19931;-78
2023/01/10 13:51:31;;;;;;;;;;;;;;;;;;5093629;28;20369;-77
2023/01/10 13:53:57;;;;;;;;;;;;;;;;;;5093170;28;19908;-78
2023/01/10 13:56:23;;;;;;;;;;;;;;;;;;5095130;28;19912;-77
2023/01/10 14:04:18;;;;;;;;;;;;;;;;;;5096585;28;20380;-78
2023/01/10 14:06:44;;;;;;;;;;;;;;;;;;5096763;28;19908;-77
2023/01/10 14:09:10;;;;;;;;;;;;;;;;;;5096726;28;19908;-77
2023/01/10 14:11:36;;;;;;;;;;;;;;;;;;5095135;28;20375;-78
2023/01/10 14:14:02;;;;;;;;;;;;;;;;;;5097151;28;19931;-77
2023/01/10 14:16:28;;;;;;;;;;;;;;;;;;5096488;28;19912;-77
2023/01/10 14:18:54;;;;;;;;;;;;;;;;;;5096538;28;20292;-78
2023/01/10 14:21:20;;;;;;;;;;;;;;;;;;5096481;28;20369;-78
2023/01/10 14:23:46;;;;;;;;;;;;;;;;;;5096483;28;19908;-77
2023/01/10 14:26:12;;;;;;;;;;;;;;;;;;5096541;28;19960;-77
2023/01/10 14:28:38;;;;;;;;;;;;;;;;;;5095046;28;20007;-77
2023/01/10 14:31:04;;;;;;;;;;;;;;;;;;5096514;28;20004;-77
2023/01/10 14:33:30;;;;;;;;;;;;;;;;;;5096328;28;19961;-77
2023/01/10 14:35:56;;;;;;;;;;;;;;;;;;5095998;28;19916;-77
2023/01/10 14:38:22;;;;;;;;;;;;;;;;;;5096385;28;20004;-77
2023/01/10 14:40:47;;;;;;;;;;;;;;;;;;5096212;28;19960;-77
2023/01/10 14:43:13;;;;;;;;;;;;;;;;;;5094762;28;19919;-78
2023/01/10 14:45:39;;;;;;;;;;;;;;;;;;5095938;28;20364;-77
2023/01/10 14:48:05;;;;;;;;;;;;;;;;;;5095965;28;19915;-77
2023/01/10 14:50:31;;;;;;;;;;;;;;;;;;5095882;28;19934;-77
2023/01/10 14:52:57;;;;;;;;;;;;;;;;;;5096078;28;19912;-77
2023/01/10 14:55:23;;;;;;;;;;;;;;;;;;5095801;28;20037;-77
2023/01/10 14:57:49;;;;;;;;;;;;;;;;;;5096189;28;20352;-77
2023/01/10 15:00:15;;;;;;;;;;;;;;;;;;5095746;28;19987;-76
2023/01/10 15:02:41;;;;;;;;;;;;;;;;;;5095893;28;19958;-77
2023/01/10 15:05:08;;;;;;;;;;;;;;;;;;5102220;28;20387;-76
2023/01/10 15:07:34;;;;;;;;;;;;;;;;;;5104765;28;19916;-77
2023/01/10 15:10:04;;;;;;;;;;;;;;;;;;5094179;28;19944;-77
2023/01/10 15:12:30;;;;;;;;;;;;;;;;;;5096020;28;20021;-76
2023/01/10 15:14:56;;;;;;;;;;;;;;;;;;5095381;28;20379;-77
2023/01/10 15:17:22;;;;;;;;;;;;;;;;;;5095321;28;20363;-78
2023/01/10 15:19:48;;;;;;;;;;;;;;;;;;5095411;28;19915;-77
2023/01/10 15:22:14;;;;;;;;;;;;;;;;;;5095217;28;19913;-77
2023/01/10 15:24:41;;;;;;;;;;;;;;;;;;5095290;28;19908;-77
2023/01/10 15:27:10;;;;;;;;;;;;;;;;;;5095520;28;20007;-77
2023/01/10 15:29:37;;;;;;;;;;;;;;;;;;5093841;28;19908;-77
2023/01/10 15:32:03;;;;;;;;;;;;;;;;;;5095097;28;20333;-77
2023/01/10 15:34:29;;;;;;;;;;;;;;;;;;5095337;28;19919;-77
2023/01/10 15:36:55;;;;;;;;;;;;;;;;;;5095133;28;19957;-77
2023/01/10 15:39:21;;;;;;;;;;;;;;;;;;5094950;28;19909;-77
2023/01/10 15:41:47;;;;;;;;;;;;;;;;;;5094909;28;20414;-77
2023/01/10 15:44:13;;;;;;;;;;;;;;;;;;5094913;28;20329;-78
2023/01/10 15:46:38;;;;;;;;;;;;;;;;;;5094819;28;19908;-77
2023/01/10 15:49:07;;;;;;;;;;;;;;;;;;5094780;28;19912;-77
2023/01/10 15:51:33;;;;;;;;;;;;;;;;;;5095033;28;19998;-77
2023/01/10 15:54:02;;;;;;;;;;;;;;;;;;5093336;28;20376;-77
2023/01/10 15:56:28;;;;;;;;;;;;;;;;;;5094565;28;19912;-76
2023/01/10 15:58:54;;;;;;;;;;;;;;;;;;5094816;28;19916;-76
2023/01/10 16:01:20;;;;;;;;;;;;;;;;;;5094870;28;20364;-77
2023/01/10 16:03:46;;;;;;;;;;;;;;;;;;5094517;28;20284;-77
2023/01/10 16:06:12;;;;;;;;;;;;;;;;;;5094674;28;19908;-76
2023/01/10 16:08:38;;;;;;;;;;;;;;;;;;5094333;28;19955;-77
2023/01/10 16:11:04;;;;;;;;;;;;;;;;;;5094768;28;19919;-77
2023/01/10 16:13:31;;;;;;;;;;;;;;;;;;5094315;28;19909;-76
2023/01/10 16:15:57;;;;;;;;;;;;;;;;;;5093021;28;19969;-77
2023/01/10 16:18:23;;;;;;;;;;;;;;;;;;5093730;28;20463;-77
2023/01/10 16:20:49;;;;;;;;;;;;;;;;;;5094624;28;19969;-76
2023/01/10 16:23:16;;;;;;;;;;;;;;;;;;5093874;28;20297;-77
2023/01/10 16:25:43;;;;;;;;;;;;;;;;;;5094105;28;19908;-77
2023/01/10 16:28:10;;;;;;;;;;;;;;;;;;5092762;28;19909;-77
2023/01/10 16:30:41;;;;;;;;;;;;;;;;;;5092728;28;19908;-77
2023/01/10 16:33:07;;;;;;;;;;;;;;;;;;5094197;28;19909;-77
2023/01/10 16:35:33;;;;;;;;;;;;;;;;;;5093709;28;20101;-77
2023/01/10 16:38:02;;;;;;;;;;;;;;;;;;5093137;28;20189;-77
2023/01/10 16:40:28;;;;;;;;;;;;;;;;;;5094074;28;19908;-76
2023/01/10 16:45:39;;;;;;;;;;;;;;;;;;5093631;28;20425;-78
2023/01/10 16:48:05;;;;;;;;;;;;;;;;;;5093913;28;19912;-77
2023/01/10 16:50:31;;;;;;;;;;;;;;;;;;5093900;28;20313;-77
2023/01/10 16:52:56;;;;;;;;;;;;;;;;;;5094264;28;19943;-77
2023/01/10 16:55:22;;;;;;;;;;;;;;;;;;5093767;28;19915;-77
2023/01/10 16:57:50;;;;;;;;;;;;;;;;;;5093691;28;19912;-77
2023/01/10 17:00:16;;;;;;;;;;;;;;;;;;5093812;28;19908;-77
2023/01/10 17:02:43;;;;;;;;;;;;;;;;;;5093763;28;20413;-77